^^
Weerstation Beverwaard
 
Daily Summary for April 25, 2018 Units:  Both    English   Metric

Notice: Undefined index: PHPSELF in C:\OpenGrADS\Contents\tmp\WU-History-inc.php on line 388
Daily Weekly Monthly Yearly Custom

Warning: Division by zero in C:\OpenGrADS\Contents\tmp\WU-History-inc.php on line 1269

Notice: Undefined variable: return in C:\OpenGrADS\Contents\tmp\WU-History-inc.php on line 1290
  Current: High: Low: Average:
Temperature: 57.4 °F /  14.1 °C 57.6 °F /  14.2 °C 49.8 °F /  9.9 °C 53.6 °F /  12 °C
Dew Point: 41.4 °F /  5.2 °C 51.3 °F /  10.7 °C 40.5 °F /  4.7 °C 47.3 °F /  8.5 °C
Humidity: 55% 93% 54% 80%
Wind Speed: 0mph /  0.0km/h 0mph /  0.0km/h - 0mph /  0km/h
Wind Gust: 0mph /  0.0km/h 0mph /  0.0km/h - -
Wind Calm - -
Pressure: 29.9 in /  1011.7 hPa 29.9 in /  1011.7 hPa 29.7 in /  1006.0 hPa -
Precipitation: 0.04 in /  1.0 mm      
Historical Graphs
 
 
Tabular Data for April 25, 2018
Time Temperature Dew Point Pressure Wind Wind Speed Wind Gust Humidity Rainfall Rate (Hourly) solar Conditions
00:01 56.8 °F /  13.8 °C 50.7 °F /  10.4 °C 29.8in /  1008.7hPa Calm     80% 0in /  0.0mm 0.0 W/m2 RA
00:06 56.8 °F /  13.8 °C 50.7 °F /  10.4 °C 29.8in /  1008.7hPa Calm     80% 0in /  0.0mm 0.0 W/m2 RA
00:11 56.8 °F /  13.8 °C 50.7 °F /  10.4 °C 29.8in /  1008.7hPa Calm     80% 0in /  0.0mm 0.0 W/m2 BKN
00:16 56.8 °F /  13.8 °C 50.7 °F /  10.4 °C 29.8in /  1008.4hPa Calm     80% 0in /  0.0mm 0.0 W/m2 BKN
00:21 56.8 °F /  13.8 °C 51.1 °F /  10.6 °C 29.8in /  1008.4hPa Calm     81% 0in /  0.0mm 0.0 W/m2 BKN
00:26 56.8 °F /  13.8 °C 51.1 °F /  10.6 °C 29.8in /  1008.4hPa Calm     81% 0in /  0.0mm 0.0 W/m2 BKN
00:31 56.7 °F /  13.7 °C 50.9 °F /  10.5 °C 29.8in /  1008.4hPa Calm     81% 0in /  0.0mm 0.0 W/m2 BKN
00:36 56.7 °F /  13.7 °C 50.7 °F /  10.4 °C 29.8in /  1008.4hPa Calm     81% 0in /  0.0mm 0.0 W/m2 BKN
00:41 56.7 °F /  13.7 °C 51.3 °F /  10.7 °C 29.8in /  1008.0hPa Calm     82% 0in /  0.0mm 0.0 W/m2 BKN
00:46 56.7 °F /  13.7 °C 51.3 °F /  10.7 °C 29.8in /  1008.0hPa Calm     82% 0in /  0.0mm 0.0 W/m2 BKN
00:51 56.7 °F /  13.7 °C 51.3 °F /  10.7 °C 29.8in /  1007.7hPa Calm     82% 0in /  0.0mm 0.0 W/m2 BKN
00:56 56.5 °F /  13.6 °C 51.1 °F /  10.6 °C 29.8in /  1007.7hPa Calm     82% 0in /  0.0mm 0.0 W/m2 BKN
01:01 56.5 °F /  13.6 °C 51.1 °F /  10.6 °C 29.8in /  1007.7hPa Calm     82% 0in /  0.0mm 0.0 W/m2 BKN
01:06 56.5 °F /  13.6 °C 51.1 °F /  10.6 °C 29.8in /  1007.7hPa Calm     82% 0in /  0.0mm 0.0 W/m2 BKN
01:11 56.5 °F /  13.6 °C 51.1 °F /  10.6 °C 29.7in /  1007.3hPa Calm     82% 0in /  0.0mm 0.0 W/m2 BKN
01:16 56.3 °F /  13.5 °C 50.9 °F /  10.5 °C 29.7in /  1007.3hPa Calm     82% 0in /  0.0mm 0.0 W/m2 BKN
01:21 56.3 °F /  13.5 °C 50.9 °F /  10.5 °C 29.7in /  1007.3hPa Calm     82% 0in /  0.0mm 0.0 W/m2 BKN
01:26 56.3 °F /  13.5 °C 50.9 °F /  10.5 °C 29.7in /  1007.3hPa Calm     82% 0in /  0.0mm 0.0 W/m2 BKN
01:31 56.1 °F /  13.4 °C 50.7 °F /  10.4 °C 29.7in /  1007.0hPa Calm     82% 0in /  0.0mm 0.0 W/m2 OVC
01:36 56.1 °F /  13.4 °C 50.7 °F /  10.4 °C 29.7in /  1007.0hPa Calm     82% 0in /  0.0mm 0.0 W/m2 OVC
01:41 56.1 °F /  13.4 °C 50.7 °F /  10.4 °C 29.7in /  1007.0hPa Calm     82% 0in /  0.0mm 0.0 W/m2 OVC
01:46 56.1 °F /  13.4 °C 50.7 °F /  10.4 °C 29.7in /  1007.0hPa Calm     82% 0in /  0.0mm 0.0 W/m2 OVC
01:51 55.9 °F /  13.3 °C 50.9 °F /  10.5 °C 29.7in /  1007.0hPa Calm     83% 0in /  0.0mm 0.0 W/m2 OVC
01:56 56.1 °F /  13.4 °C 50.7 °F /  10.4 °C 29.7in /  1007.0hPa Calm     82% 0in /  0.0mm 0.0 W/m2 OVC
02:01 56.1 °F /  13.4 °C 50.7 °F /  10.4 °C 29.7in /  1007.0hPa Calm     82% 0in /  0.0mm 0.0 W/m2 -RA
02:06 56.1 °F /  13.4 °C 50.7 °F /  10.4 °C 29.7in /  1007.0hPa Calm     82% 0in /  0.0mm 0.0 W/m2 -RA
02:11 56.1 °F /  13.4 °C 50.7 °F /  10.4 °C 29.7in /  1007.0hPa Calm     82% 0in /  0.0mm 0.0 W/m2 -RA
02:16 56.1 °F /  13.4 °C 50.7 °F /  10.4 °C 29.7in /  1006.7hPa Calm     82% 0in /  0.0mm 0.0 W/m2 -RA
02:21 56.1 °F /  13.4 °C 50.7 °F /  10.4 °C 29.7in /  1007.0hPa Calm     82% 0in /  0.0mm 0.0 W/m2 -RA
02:26 55.9 °F /  13.3 °C 50.5 °F /  10.3 °C 29.7in /  1006.7hPa Calm     82% 0in /  0.0mm 0.0 W/m2 -RA
02:31 56.1 °F /  13.4 °C 50.7 °F /  10.4 °C 29.7in /  1006.7hPa Calm     82% 0in /  0.0mm 0.0 W/m2 -RA
02:36 56.1 °F /  13.4 °C 50.7 °F /  10.4 °C 29.7in /  1006.7hPa Calm     82% 0in /  0.0mm 0.0 W/m2 -RA
02:41 56.1 °F /  13.4 °C 50.7 °F /  10.4 °C 29.7in /  1006.7hPa Calm     82% 0in /  0.0mm 0.0 W/m2 -RA
02:46 56.1 °F /  13.4 °C 51.1 °F /  10.6 °C 29.7in /  1006.7hPa Calm     83% 0in /  0.0mm 0.0 W/m2 -RA
02:51 56.1 °F /  13.4 °C 50.7 °F /  10.4 °C 29.7in /  1006.7hPa Calm     82% 0in /  0.0mm 0.0 W/m2 -RA
02:56 56.1 °F /  13.4 °C 51.1 °F /  10.6 °C 29.7in /  1006.7hPa Calm     83% 0in /  0.0mm 0.0 W/m2 -RA
03:01 56.1 °F /  13.4 °C 51.1 °F /  10.6 °C 29.7in /  1006.3hPa Calm     83% 0in /  0.0mm 0.0 W/m2 -RA
03:06 56.1 °F /  13.4 °C 51.1 °F /  10.6 °C 29.7in /  1006.7hPa Calm     83% 0in /  0.0mm 0.0 W/m2 -RA
03:11 56.1 °F /  13.4 °C 51.1 °F /  10.6 °C 29.7in /  1006.7hPa Calm     83% 0in /  0.0mm 0.0 W/m2 -RA
03:16 55.9 °F /  13.3 °C 51.3 °F /  10.7 °C 29.7in /  1006.3hPa Calm     84% 0in /  0.0mm 0.0 W/m2 -RA
03:21 55.9 °F /  13.3 °C 51.1 °F /  10.6 °C 29.7in /  1006.3hPa Calm     84% 0in /  0.0mm 0.0 W/m2 -RA
03:26 55.9 °F /  13.3 °C 51.3 °F /  10.7 °C 29.7in /  1006.3hPa Calm     84% 0in /  0.0mm 0.0 W/m2 -RA
03:31 55.9 °F /  13.3 °C 51.1 °F /  10.6 °C 29.7in /  1006.3hPa Calm     84% 0in /  0.0mm 0.0 W/m2 -RA
03:36 55.8 °F /  13.2 °C 51.1 °F /  10.6 °C 29.7in /  1006.3hPa Calm     84% 0in /  0.0mm 0.0 W/m2 -RA
03:41 55.8 °F /  13.2 °C 50.9 °F /  10.5 °C 29.7in /  1006.3hPa Calm     84% 0in /  0.0mm 0.0 W/m2 -RA
03:46 55.6 °F /  13.1 °C 50.7 °F /  10.4 °C 29.7in /  1006.7hPa Calm     84% 0in /  0.0mm 0.0 W/m2 -RA
03:51 55.6 °F /  13.1 °C 50.7 °F /  10.4 °C 29.7in /  1006.3hPa Calm     84% 0in /  0.0mm 0.0 W/m2 -RA
03:56 55.2 °F /  12.9 °C 50.4 °F /  10.2 °C 29.7in /  1006.3hPa Calm     84% 0in /  0.0mm 0.0 W/m2 -RA
04:01 54.7 °F /  12.6 °C 50 °F /  10.0 °C 29.7in /  1006.3hPa Calm     84% 0in /  0.0mm 0.0 W/m2 -DZ
04:06 54.3 °F /  12.4 °C 50 °F /  10.0 °C 29.7in /  1006.3hPa Calm     85% 0in /  0.0mm 0.0 W/m2 -DZ
04:11 54.1 °F /  12.3 °C 50.2 °F /  10.1 °C 29.7in /  1006.3hPa Calm     86% 0in /  0.0mm 0.0 W/m2 -DZ
04:16 54 °F /  12.2 °C 50.2 °F /  10.1 °C 29.7in /  1006.3hPa Calm     87% 0in /  0.0mm 0.0 W/m2 -DZ
04:21 53.2 °F /  11.8 °C 50.2 °F /  10.1 °C 29.7in /  1006.3hPa Calm     89% 0.01in /  0.3mm 0.0 W/m2 -DZ
04:26 52.9 °F /  11.6 °C 50 °F /  10.0 °C 29.7in /  1006.3hPa Calm     90% 0.01in /  0.3mm 0.0 W/m2 -DZ
04:31 52.5 °F /  11.4 °C 50 °F /  10.0 °C 29.7in /  1006.3hPa Calm     91% 0.02in /  0.5mm 0.0 W/m2 RA
04:35 52.5 °F /  11.4 °C 50 °F /  10.0 °C 29.7in /  1006.3hPa Calm     91% 0.02in /  0.5mm 0.0 W/m2 RA
04:40 52.3 °F /  11.3 °C 50.2 °F /  10.1 °C 29.7in /  1006.3hPa Calm     92% 0.02in /  0.5mm 0.0 W/m2 RA
04:45 52.3 °F /  11.3 °C 50.2 °F /  10.1 °C 29.7in /  1006.3hPa Calm     92% 0.02in /  0.5mm 0.0 W/m2 BKN
04:50 52.3 °F /  11.3 °C 50.4 °F /  10.2 °C 29.7in /  1006.0hPa Calm     93% 0.02in /  0.5mm 0.0 W/m2 BKN
04:55 52.3 °F /  11.3 °C 50.4 °F /  10.2 °C 29.7in /  1006.3hPa Calm     93% 0.03in /  0.8mm 0.0 W/m2 RA
05:00 52.3 °F /  11.3 °C 50.4 °F /  10.2 °C 29.7in /  1006.3hPa Calm     93% 0.03in /  0.8mm 0.0 W/m2 RA
05:05 52.3 °F /  11.3 °C 50.4 °F /  10.2 °C 29.7in /  1006.0hPa Calm     93% 0.03in /  0.8mm 0.0 W/m2 -DZ
05:10 52.3 °F /  11.3 °C 50.4 °F /  10.2 °C 29.7in /  1006.0hPa Calm     93% 0.04in /  1.0mm 0.0 W/m2 -DZ
05:15 52.3 °F /  11.3 °C 50.4 °F /  10.2 °C 29.7in /  1006.3hPa Calm     93% 0.04in /  1.0mm 0.0 W/m2 -DZ
05:20 52.5 °F /  11.4 °C 50.2 °F /  10.1 °C 29.7in /  1006.3hPa Calm     92% 0.03in /  0.8mm 0.0 W/m2 -DZ
05:25 52.5 °F /  11.4 °C 50.4 °F /  10.2 °C 29.7in /  1006.3hPa Calm     92% 0.03in /  0.8mm 0.0 W/m2 -DZ
05:30 52.5 °F /  11.4 °C 50.4 °F /  10.2 °C 29.7in /  1006.3hPa Calm     92% 0.02in /  0.5mm 0.0 W/m2 -DZ
05:35 52.7 °F /  11.5 °C 50.2 °F /  10.1 °C 29.7in /  1006.3hPa Calm     91% 0.02in /  0.5mm 0.0 W/m2 -DZ
05:40 52.9 °F /  11.6 °C 50.2 °F /  10.1 °C 29.7in /  1006.3hPa Calm     91% 0.02in /  0.5mm 0.0 W/m2 -DZ
05:45 52.9 °F /  11.6 °C 50.2 °F /  10.1 °C 29.7in /  1006.3hPa Calm     91% 0.02in /  0.5mm 0.0 W/m2 BKN
05:50 52.9 °F /  11.6 °C 50 °F /  10.0 °C 29.7in /  1006.3hPa Calm     90% 0.02in /  0.5mm 0.0 W/m2 BKN
05:55 53.1 °F /  11.7 °C 50.2 °F /  10.1 °C 29.7in /  1006.7hPa Calm     90% 0.02in /  0.5mm 0.0 W/m2 BKN
06:00 53.1 °F /  11.7 °C 50.2 °F /  10.1 °C 29.7in /  1006.3hPa Calm     90% 0.01in /  0.3mm 0.0 W/m2 BKN
06:05 53.1 °F /  11.7 °C 50.2 °F /  10.1 °C 29.7in /  1006.7hPa Calm     90% 0.01in /  0.3mm 0.0 W/m2 BKN
06:10 53.1 °F /  11.7 °C 49.8 °F /  9.9 °C 29.7in /  1006.7hPa Calm     89% 0.01in /  0.3mm 0.0 W/m2 BKN
06:15 53.2 °F /  11.8 °C 50 °F /  10.0 °C 29.7in /  1006.7hPa Calm     89% 0in /  0.0mm 0.0 W/m2 BKN
06:20 53.2 °F /  11.8 °C 50 °F /  10.0 °C 29.7in /  1007.0hPa Calm     89% 0in /  0.0mm 0.0 W/m2 BKN
06:25 53.2 °F /  11.8 °C 49.6 °F /  9.8 °C 29.7in /  1007.0hPa Calm     88% 0in /  0.0mm 0.0 W/m2 BKN
06:29 53.2 °F /  11.8 °C 49.5 °F /  9.7 °C 29.7in /  1007.0hPa Calm     87% 0in /  0.0mm 0.0 W/m2 BKN
06:34 53.1 °F /  11.7 °C 49.3 °F /  9.6 °C 29.7in /  1007.0hPa Calm     87% 0in /  0.0mm 0.0 W/m2 -RA
06:39 52.9 °F /  11.6 °C 49.5 °F /  9.7 °C 29.7in /  1007.0hPa Calm     88% 0in /  0.0mm 0.0 W/m2 -RA
06:44 52.5 °F /  11.4 °C 50.2 °F /  10.1 °C 29.7in /  1007.3hPa Calm     92% 0in /  0.0mm 0.0 W/m2 -RA
06:49 52.2 °F /  11.2 °C 48.9 °F /  9.4 °C 29.7in /  1007.3hPa Calm     89% 0in /  0.0mm 5.0 W/m2 -RA
06:54 51.8 °F /  11.0 °C 48.4 °F /  9.1 °C 29.7in /  1007.3hPa Calm     88% 0in /  0.0mm 12.0 W/m2 -RA
06:59 51.6 °F /  10.9 °C 47.5 °F /  8.6 °C 29.7in /  1007.3hPa Calm     86% 0in /  0.0mm 11.0 W/m2 -RA
07:04 51.4 °F /  10.8 °C 47.5 °F /  8.6 °C 29.8in /  1007.7hPa Calm     86% 0in /  0.0mm 19.0 W/m2 BKN
07:09 51.4 °F /  10.8 °C 47.5 °F /  8.6 °C 29.8in /  1007.7hPa Calm     86% 0in /  0.0mm 19.0 W/m2 BKN
07:14 51.3 °F /  10.7 °C 47.3 °F /  8.5 °C 29.8in /  1007.7hPa Calm     86% 0in /  0.0mm 23.0 W/m2 BKN
07:19 51.3 °F /  10.7 °C 46.8 °F /  8.2 °C 29.8in /  1007.7hPa Calm     85% 0in /  0.0mm 26.0 W/m2 BKN
07:24 51.1 °F /  10.6 °C 46.8 °F /  8.2 °C 29.8in /  1007.7hPa Calm     85% 0in /  0.0mm 32.0 W/m2 BKN
07:29 51.1 °F /  10.6 °C 46.6 °F /  8.1 °C 29.8in /  1008.0hPa Calm     85% 0in /  0.0mm 35.0 W/m2 BKN
07:34 51.1 °F /  10.6 °C 46.2 °F /  7.9 °C 29.8in /  1008.0hPa Calm     84% 0in /  0.0mm 35.0 W/m2 BKN
07:39 51.1 °F /  10.6 °C 46.2 °F /  7.9 °C 29.8in /  1008.4hPa Calm     84% 0in /  0.0mm 37.0 W/m2 BKN
07:44 51.1 °F /  10.6 °C 46.2 °F /  7.9 °C 29.8in /  1008.4hPa Calm     84% 0in /  0.0mm 44.0 W/m2 BKN
07:49 50.9 °F /  10.5 °C 46.6 °F /  8.1 °C 29.8in /  1008.4hPa Calm     85% 0in /  0.0mm 47.0 W/m2 BKN
07:54 51.1 °F /  10.6 °C 46.6 °F /  8.1 °C 29.8in /  1008.4hPa Calm     85% 0in /  0.0mm 49.0 W/m2 BKN
07:59 50.9 °F /  10.5 °C 46.6 °F /  8.1 °C 29.8in /  1008.4hPa Calm     85% 0in /  0.0mm 47.0 W/m2 BKN
08:04 51.1 °F /  10.6 °C 46.6 °F /  8.1 °C 29.8in /  1008.7hPa Calm     85% 0in /  0.0mm 47.0 W/m2 SCT
08:09 51.1 °F /  10.6 °C 46.2 °F /  7.9 °C 29.8in /  1008.7hPa Calm     84% 0in /  0.0mm 63.0 W/m2 SCT
08:14 51.1 °F /  10.6 °C 46.2 °F /  7.9 °C 29.8in /  1008.7hPa Calm     84% 0in /  0.0mm 49.0 W/m2 SCT
08:19 50.9 °F /  10.5 °C 45.9 °F /  7.7 °C 29.8in /  1009.0hPa Calm     83% 0in /  0.0mm 42.0 W/m2 SCT
08:24 50.7 °F /  10.4 °C 45.9 °F /  7.7 °C 29.8in /  1009.0hPa Calm     83% 0in /  0.0mm 47.0 W/m2 SCT
08:29 50.7 °F /  10.4 °C 46 °F /  7.8 °C 29.8in /  1009.0hPa Calm     84% 0in /  0.0mm 28.0 W/m2 SCT
08:34 50.5 °F /  10.3 °C 45.7 °F /  7.6 °C 29.8in /  1009.0hPa Calm     83% 0in /  0.0mm 70.0 W/m2 BKN
08:39 50.5 °F /  10.3 °C 45.7 °F /  7.6 °C 29.8in /  1009.4hPa Calm     83% 0in /  0.0mm 54.0 W/m2 BKN
08:44 50.5 °F /  10.3 °C 45.7 °F /  7.6 °C 29.8in /  1009.4hPa Calm     83% 0in /  0.0mm 69.0 W/m2 BKN
08:45 50.5 °F /  10.3 °C 45.9 °F /  7.7 °C 29.8in /  1009.4hPa Calm     84% 0in /  0.0mm 77.0 W/m2 BKN
08:50 50.5 °F /  10.3 °C 45.9 °F /  7.7 °C 29.8in /  1009.4hPa Calm     84% 0in /  0.0mm 88.0 W/m2 BKN
08:55 50.5 °F /  10.3 °C 45.9 °F /  7.7 °C 29.8in /  1009.4hPa Calm     84% 0in /  0.0mm 76.0 W/m2 BKN
09:00 50.5 °F /  10.3 °C 46.2 °F /  7.9 °C 29.8in /  1009.4hPa Calm     85% 0in /  0.0mm 74.0 W/m2 BKN
09:05 50.5 °F /  10.3 °C 46.2 °F /  7.9 °C 29.8in /  1009.4hPa Calm     85% 0in /  0.0mm 65.0 W/m2 OVC
09:10 50.4 °F /  10.2 °C 45.7 °F /  7.6 °C 29.8in /  1009.4hPa Calm     84% 0in /  0.0mm 100.0 W/m2 OVC
09:15 50.4 °F /  10.2 °C 45.7 °F /  7.6 °C 29.8in /  1009.4hPa Calm     84% 0in /  0.0mm 72.0 W/m2 OVC
09:20 50.2 °F /  10.1 °C 45.7 °F /  7.6 °C 29.8in /  1009.4hPa Calm     84% 0in /  0.0mm 70.0 W/m2 OVC
09:25 50.2 °F /  10.1 °C 45.5 °F /  7.5 °C 29.8in /  1009.7hPa Calm     84% 0in /  0.0mm 67.0 W/m2 OVC
09:30 50.2 °F /  10.1 °C 45.5 °F /  7.5 °C 29.8in /  1009.7hPa Calm     84% 0in /  0.0mm 67.0 W/m2 OVC
09:35 50 °F /  10.0 °C 45 °F /  7.2 °C 29.8in /  1009.7hPa Calm     83% 0in /  0.0mm 76.0 W/m2 BKN
09:40 50 °F /  10.0 °C 45 °F /  7.2 °C 29.8in /  1010.0hPa Calm     83% 0in /  0.0mm 79.0 W/m2 BKN
09:45 50.2 °F /  10.1 °C 45.1 °F /  7.3 °C 29.8in /  1010.0hPa Calm     83% 0in /  0.0mm 90.0 W/m2 BKN
09:50 50.2 °F /  10.1 °C 45.5 °F /  7.5 °C 29.8in /  1010.0hPa Calm     84% 0in /  0.0mm 77.0 W/m2 BKN
09:55 50.2 °F /  10.1 °C 45.5 °F /  7.5 °C 29.8in /  1010.0hPa Calm     84% 0in /  0.0mm 109.0 W/m2 BKN
10:00 50 °F /  10.0 °C 45.3 °F /  7.4 °C 29.8in /  1010.0hPa Calm     84% 0in /  0.0mm 69.0 W/m2 BKN
10:05 50 °F /  10.0 °C 45.7 °F /  7.6 °C 29.8in /  1010.0hPa Calm     85% 0in /  0.0mm 49.0 W/m2 SCT
10:10 49.8 °F /  9.9 °C 45.7 °F /  7.6 °C 29.8in /  1010.0hPa Calm     85% 0in /  0.0mm 60.0 W/m2 SCT
10:15 49.8 °F /  9.9 °C 45.5 °F /  7.5 °C 29.8in /  1010.0hPa Calm     85% 0in /  0.0mm 49.0 W/m2 SCT
10:20 49.8 °F /  9.9 °C 45.7 °F /  7.6 °C 29.8in /  1010.0hPa Calm     85% 0in /  0.0mm 109.0 W/m2 SCT
10:25 50 °F /  10.0 °C 45.3 °F /  7.4 °C 29.8in /  1010.0hPa Calm     84% 0in /  0.0mm 93.0 W/m2 SCT
10:30 50.2 °F /  10.1 °C 45.5 °F /  7.5 °C 29.8in /  1010.4hPa Calm     84% 0in /  0.0mm 114.0 W/m2 SCT
10:35 50.4 °F /  10.2 °C 45.7 °F /  7.6 °C 29.8in /  1010.4hPa Calm     84% 0in /  0.0mm 121.0 W/m2 -RA
10:40 50.4 °F /  10.2 °C 45.1 °F /  7.3 °C 29.8in /  1010.4hPa Calm     82% 0in /  0.0mm 120.0 W/m2 -RA
10:45 50.5 °F /  10.3 °C 45.3 °F /  7.4 °C 29.8in /  1010.4hPa Calm     82% 0in /  0.0mm 83.0 W/m2 -RA
10:50 50.7 °F /  10.4 °C 45.1 °F /  7.3 °C 29.8in /  1010.4hPa Calm     81% 0in /  0.0mm 156.0 W/m2 -RA
10:55 50.7 °F /  10.4 °C 45.1 °F /  7.3 °C 29.8in /  1010.4hPa Calm     81% 0in /  0.0mm 229.0 W/m2 -RA
11:00 51.3 °F /  10.7 °C 45.3 °F /  7.4 °C 29.8in /  1010.7hPa Calm     80% 0in /  0.0mm 225.0 W/m2 -RA
11:05 51.6 °F /  10.9 °C 45.7 °F /  7.6 °C 29.8in /  1010.7hPa Calm     80% 0in /  0.0mm 141.0 W/m2 BKN
11:10 51.8 °F /  11.0 °C 45.5 °F /  7.5 °C 29.8in /  1010.7hPa Calm     79% 0in /  0.0mm 218.0 W/m2 BKN
11:15 51.8 °F /  11.0 °C 45.5 °F /  7.5 °C 29.8in /  1010.7hPa Calm     79% 0in /  0.0mm 128.0 W/m2 BKN
11:20 51.8 °F /  11.0 °C 45.1 °F /  7.3 °C 29.9in /  1011.1hPa Calm     78% 0in /  0.0mm 160.0 W/m2 BKN
11:25 51.8 °F /  11.0 °C 45.1 °F /  7.3 °C 29.9in /  1011.1hPa Calm     78% 0in /  0.0mm 134.0 W/m2 BKN
11:30 51.8 °F /  11.0 °C 45.1 °F /  7.3 °C 29.9in /  1011.1hPa Calm     78% 0in /  0.0mm 88.0 W/m2 BKN
11:35 51.6 °F /  10.9 °C 45 °F /  7.2 °C 29.9in /  1011.1hPa Calm     78% 0in /  0.0mm 51.0 W/m2 OVC
11:40 51.4 °F /  10.8 °C 45.1 °F /  7.3 °C 29.9in /  1011.1hPa Calm     79% 0in /  0.0mm 47.0 W/m2 OVC
11:45 51.6 °F /  10.9 °C 45.3 °F /  7.4 °C 29.9in /  1011.4hPa Calm     79% 0in /  0.0mm 107.0 W/m2 OVC
11:50 51.6 °F /  10.9 °C 45.1 °F /  7.3 °C 29.9in /  1011.4hPa Calm     78% 0in /  0.0mm 118.0 W/m2 OVC
11:55 51.6 °F /  10.9 °C 45.1 °F /  7.3 °C 29.9in /  1011.4hPa Calm     78% 0in /  0.0mm 137.0 W/m2 OVC
12:00 51.8 °F /  11.0 °C 45.1 °F /  7.3 °C 29.9in /  1011.4hPa Calm     78% 0in /  0.0mm 207.0 W/m2 OVC
12:05 52.2 °F /  11.2 °C 45.1 °F /  7.3 °C 29.9in /  1011.1hPa Calm     77% 0in /  0.0mm 299.0 W/m2 BKN
12:10 52.3 °F /  11.3 °C 44.8 °F /  7.1 °C 29.9in /  1011.4hPa Calm     75% 0in /  0.0mm 118.0 W/m2 BKN
12:15 52.3 °F /  11.3 °C 44.4 °F /  6.9 °C 29.9in /  1011.4hPa Calm     74% 0in /  0.0mm 204.0 W/m2 BKN
12:20 52.7 °F /  11.5 °C 44.2 °F /  6.8 °C 29.9in /  1011.1hPa Calm     73% 0in /  0.0mm 211.0 W/m2 BKN
12:25 52.9 °F /  11.6 °C 44.1 °F /  6.7 °C 29.9in /  1011.4hPa Calm     72% 0in /  0.0mm 236.0 W/m2 BKN
12:30 53.1 °F /  11.7 °C 44.2 °F /  6.8 °C 29.9in /  1011.4hPa Calm     72% 0in /  0.0mm 241.0 W/m2 BKN
12:35 53.1 °F /  11.7 °C 44.2 °F /  6.8 °C 29.9in /  1011.4hPa Calm     72% 0in /  0.0mm 216.0 W/m2 OVC
12:40 53.1 °F /  11.7 °C 44.2 °F /  6.8 °C 29.9in /  1011.1hPa Calm     72% 0in /  0.0mm 262.0 W/m2 OVC
12:45 53.2 °F /  11.8 °C 44.4 °F /  6.9 °C 29.9in /  1011.4hPa Calm     72% 0in /  0.0mm 364.0 W/m2 OVC
12:50 53.6 °F /  12.0 °C 44.4 °F /  6.9 °C 29.9in /  1011.4hPa Calm     71% 0in /  0.0mm 227.0 W/m2 OVC
12:56 53.4 °F /  11.9 °C 44.2 °F /  6.8 °C 29.9in /  1011.4hPa Calm     71% 0in /  0.0mm 151.0 W/m2 OVC
13:01 53.1 °F /  11.7 °C 44.2 °F /  6.8 °C 29.9in /  1011.4hPa Calm     72% 0in /  0.0mm 244.0 W/m2 OVC
13:06 53.1 °F /  11.7 °C 44.6 °F /  7.0 °C 29.9in /  1011.4hPa Calm     73% 0in /  0.0mm 135.0 W/m2 OVC
13:11 53.2 °F /  11.8 °C 45 °F /  7.2 °C 29.9in /  1011.4hPa Calm     73% 0in /  0.0mm 216.0 W/m2 OVC
13:16 53.2 °F /  11.8 °C 44.1 °F /  6.7 °C 29.9in /  1011.7hPa Calm     71% 0in /  0.0mm 149.0 W/m2 OVC
13:21 53.2 °F /  11.8 °C 44.4 °F /  6.9 °C 29.9in /  1011.4hPa Calm     72% 0in /  0.0mm 244.0 W/m2 OVC
13:26 53.4 °F /  11.9 °C 44.2 °F /  6.8 °C 29.9in /  1011.7hPa Calm     71% 0in /  0.0mm 232.0 W/m2 OVC
13:31 53.8 °F /  12.1 °C 45 °F /  7.2 °C 29.9in /  1011.4hPa Calm     72% 0in /  0.0mm 125.0 W/m2 OVC
13:36 53.4 °F /  11.9 °C 44.8 °F /  7.1 °C 29.9in /  1011.4hPa Calm     72% 0in /  0.0mm 130.0 W/m2 -RA
13:41 53.6 °F /  12.0 °C 46.2 °F /  7.9 °C 29.9in /  1011.7hPa Calm     76% 0in /  0.0mm 881.0 W/m2 -RA
13:46 54.3 °F /  12.4 °C 45.1 °F /  7.3 °C 29.9in /  1011.4hPa Calm     71% 0in /  0.0mm 919.0 W/m2 -RA
13:51 55.2 °F /  12.9 °C 46 °F /  7.8 °C 29.9in /  1011.4hPa Calm     71% 0in /  0.0mm 403.0 W/m2 -RA
13:56 56.1 °F /  13.4 °C 45.3 °F /  7.4 °C 29.9in /  1011.4hPa Calm     67% 0in /  0.0mm 394.0 W/m2 -RA
14:01 56.3 °F /  13.5 °C 45.5 °F /  7.5 °C 29.9in /  1011.4hPa Calm     67% 0in /  0.0mm 984.0 W/m2 -RA
14:06 57 °F /  13.9 °C 45.7 °F /  7.6 °C 29.9in /  1011.4hPa Calm     66% 0in /  0.0mm 269.0 W/m2 SCT
14:11 56.8 °F /  13.8 °C 45.7 °F /  7.6 °C 29.9in /  1011.4hPa Calm     66% 0in /  0.0mm 171.0 W/m2 SCT
14:16 56.3 °F /  13.5 °C 45.1 °F /  7.3 °C 29.9in /  1011.4hPa Calm     66% 0in /  0.0mm 979.0 W/m2 SCT
14:21 56.1 °F /  13.4 °C 45 °F /  7.2 °C 29.9in /  1011.4hPa Calm     66% 0in /  0.0mm 207.0 W/m2 SCT
14:26 55.9 °F /  13.3 °C 45.1 °F /  7.3 °C 29.9in /  1011.4hPa Calm     67% 0in /  0.0mm 167.0 W/m2 SCT
14:31 55 °F /  12.8 °C 45.1 °F /  7.3 °C 29.9in /  1011.4hPa Calm     69% 0in /  0.0mm 206.0 W/m2 OVC
14:36 55.2 °F /  12.9 °C 45.7 °F /  7.6 °C 29.9in /  1011.7hPa Calm     70% 0in /  0.0mm 139.0 W/m2 OVC
14:41 55 °F /  12.8 °C 44.6 °F /  7.0 °C 29.9in /  1011.7hPa Calm     68% 0in /  0.0mm 197.0 W/m2 OVC
14:46 55 °F /  12.8 °C 45.1 °F /  7.3 °C 29.9in /  1011.7hPa Calm     69% 0in /  0.0mm 930.0 W/m2 BKN
14:50 55.4 °F /  13.0 °C 44.6 °F /  7.0 °C 29.9in /  1011.7hPa Calm     67% 0in /  0.0mm 190.0 W/m2 SCT
14:55 55.6 °F /  13.1 °C 44.8 °F /  7.1 °C 29.9in /  1011.7hPa Calm     67% 0in /  0.0mm 621.0 W/m2 SCT
15:00 55.8 °F /  13.2 °C 45 °F /  7.2 °C 29.9in /  1011.7hPa Calm     67% 0in /  0.0mm 169.0 W/m2 BKN
15:05 55.8 °F /  13.2 °C 44.6 °F /  7.0 °C 29.9in /  1011.7hPa Calm     66% 0in /  0.0mm 141.0 W/m2 SCT
15:10 55.8 °F /  13.2 °C 44.4 °F /  6.9 °C 29.9in /  1011.7hPa Calm     66% 0in /  0.0mm 162.0 W/m2 SCT
15:15 55.2 °F /  12.9 °C 44.1 °F /  6.7 °C 29.9in /  1011.7hPa Calm     66% 0in /  0.0mm 172.0 W/m2 SCT
15:20 55 °F /  12.8 °C 43.3 °F /  6.3 °C 29.9in /  1011.7hPa Calm     65% 0in /  0.0mm 174.0 W/m2 SCT
15:25 55.4 °F /  13.0 °C 42.6 °F /  5.9 °C 29.9in /  1011.7hPa Calm     62% 0in /  0.0mm 174.0 W/m2 SCT
15:30 55.8 °F /  13.2 °C 42.1 °F /  5.6 °C 29.9in /  1011.7hPa Calm     60% 0in /  0.0mm 148.0 W/m2 SCT
15:35 55.8 °F /  13.2 °C 41.5 °F /  5.3 °C 29.9in /  1011.7hPa Calm     59% 0in /  0.0mm 193.0 W/m2 SCT
15:40 55.9 °F /  13.3 °C 40.5 °F /  4.7 °C 29.9in /  1011.7hPa Calm     56% 0in /  0.0mm 204.0 W/m2 SCT
15:45 56.3 °F /  13.5 °C 40.8 °F /  4.9 °C 29.9in /  1011.7hPa Calm     56% 0in /  0.0mm 844.0 W/m2 SCT
15:50 57 °F /  13.9 °C 40.5 °F /  4.7 °C 29.9in /  1011.7hPa Calm     54% 0in /  0.0mm 782.0 W/m2 SCT
15:55 57.6 °F /  14.2 °C 41.2 °F /  5.1 °C 29.9in /  1011.7hPa Calm     54% 0in /  0.0mm 221.0 W/m2 SCT
16:00 57 °F /  13.9 °C 41.2 °F /  5.1 °C 29.9in /  1011.7hPa Calm     55% 0in /  0.0mm 749.0 W/m2 SCT
16:05 57.2 °F /  14.0 °C 41.5 °F /  5.3 °C 29.9in /  1011.7hPa Calm     56% 0in /  0.0mm 772.0 W/m2 BKN
16:10 57.6 °F /  14.2 °C 41.9 °F /  5.5 °C 29.9in /  1011.7hPa Calm     56% 0in /  0.0mm 752.0 W/m2 BKN
16:15 57.4 °F /  14.1 °C 41.4 °F /  5.2 °C 29.9in /  1011.7hPa Calm     55% 0in /  0.0mm 687.0 W/m2 BKN
Rotterdam Beverwaard Nederland
Compliments of Weather Underground - 2 mb